createdAt,value
2023-04-24T00:00:18.771Z,1007.86
2023-04-24T00:01:18.752Z,1007.86
2023-04-24T00:02:18.821Z,1007.86
2023-04-24T00:03:18.925Z,1007.86
2023-04-24T00:04:19.053Z,1007.88
2023-04-24T00:05:18.759Z,1007.87
2023-04-24T00:06:18.757Z,1007.84
2023-04-24T00:07:18.787Z,1007.84
2023-04-24T00:08:18.757Z,1007.81
2023-04-24T00:09:18.773Z,1007.8
2023-04-24T00:10:18.763Z,1007.79
2023-04-24T00:11:18.754Z,1007.75
2023-04-24T00:12:18.776Z,1007.77
2023-04-24T00:13:18.764Z,1007.78
2023-04-24T00:14:18.760Z,1007.76
2023-04-24T00:15:18.758Z,1007.73
2023-04-24T00:16:18.807Z,1007.73
2023-04-24T00:17:18.773Z,1007.77
2023-04-24T00:18:18.837Z,1007.76
2023-04-24T00:19:18.752Z,1007.77
2023-04-24T00:20:18.761Z,1007.83
2023-04-24T00:21:18.754Z,1007.87
2023-04-24T00:22:18.773Z,1007.91
2023-04-24T00:23:18.748Z,1008.01
2023-04-24T00:24:18.752Z,1008.04
2023-04-24T00:25:18.760Z,1007.98
2023-04-24T00:26:18.746Z,1007.9
2023-04-24T00:27:18.757Z,1007.95
2023-04-24T00:28:18.747Z,1007.94
2023-04-24T00:29:18.756Z,1007.93
2023-04-24T00:30:18.743Z,1008
2023-04-24T00:31:18.750Z,1008.05
2023-04-24T00:32:19.182Z,1008
2023-04-24T00:33:18.766Z,1007.92
2023-04-24T00:34:18.757Z,1007.84
2023-04-24T00:35:18.750Z,1007.79
2023-04-24T00:36:18.762Z,1007.83
2023-04-24T00:37:18.783Z,1007.78
2023-04-24T00:38:18.759Z,1007.76
2023-04-24T00:39:18.754Z,1007.77
2023-04-24T00:40:18.758Z,1007.75
2023-04-24T00:41:18.750Z,1007.76
2023-04-24T00:42:18.772Z,1007.79
2023-04-24T00:43:18.761Z,1007.78
2023-04-24T00:44:18.765Z,1007.81
2023-04-24T00:45:18.756Z,1007.78
2023-04-24T00:46:18.786Z,1007.78
2023-04-24T00:47:18.772Z,1007.75
2023-04-24T00:48:18.782Z,1007.72
2023-04-24T00:49:18.749Z,1007.78
2023-04-24T00:50:18.761Z,1007.79
2023-04-24T00:51:18.757Z,1007.75
2023-04-24T00:52:18.821Z,1007.7
2023-04-24T00:53:18.772Z,1007.66
2023-04-24T00:54:18.760Z,1007.65
2023-04-24T00:55:18.755Z,1007.71
2023-04-24T00:56:18.751Z,1007.67
2023-04-24T00:57:18.764Z,1007.73
2023-04-24T00:58:18.755Z,1007.75
2023-04-24T00:59:18.765Z,1007.7
2023-04-24T01:00:18.773Z,1007.73
2023-04-24T01:01:18.771Z,1007.66
2023-04-24T01:02:18.835Z,1007.7
2023-04-24T01:03:18.881Z,1007.73
2023-04-24T01:04:18.915Z,1007.75
2023-04-24T01:05:18.764Z,1007.75
2023-04-24T01:06:18.766Z,1007.75
2023-04-24T01:07:18.781Z,1007.75
2023-04-24T01:08:18.752Z,1007.7
2023-04-24T01:09:18.755Z,1007.7
2023-04-24T01:10:18.899Z,1007.63
2023-04-24T01:11:18.778Z,1007.66
2023-04-24T01:12:18.786Z,1007.63
2023-04-24T01:13:18.762Z,1007.63
2023-04-24T01:14:18.765Z,1007.63
2023-04-24T01:15:18.771Z,1007.64
2023-04-24T01:16:18.837Z,1007.61
2023-04-24T01:17:18.861Z,1007.62
2023-04-24T01:18:18.764Z,1007.59
2023-04-24T01:19:18.756Z,1007.65
2023-04-24T01:20:18.762Z,1007.62
2023-04-24T01:21:18.763Z,1007.6
2023-04-24T01:22:18.783Z,1007.62
2023-04-24T01:23:18.766Z,1007.67
2023-04-24T01:24:18.764Z,1007.64
2023-04-24T01:25:18.764Z,1007.68
2023-04-24T01:26:18.762Z,1007.66
2023-04-24T01:27:18.770Z,1007.68
2023-04-24T01:28:18.776Z,1007.71
2023-04-24T01:29:18.787Z,1007.68
2023-04-24T01:30:18.753Z,1007.69
2023-04-24T01:31:18.870Z,1007.66
2023-04-24T01:32:18.825Z,1007.66
2023-04-24T01:33:18.797Z,1007.67
2023-04-24T01:34:18.769Z,1007.63
2023-04-24T01:35:18.764Z,1007.62
2023-04-24T01:36:18.763Z,1007.67
2023-04-24T01:37:18.776Z,1007.66
2023-04-24T01:38:18.765Z,1007.59
2023-04-24T01:39:18.764Z,1007.65
2023-04-24T01:40:18.769Z,1007.59
2023-04-24T01:41:18.758Z,1007.6
2023-04-24T01:42:18.771Z,1007.63
2023-04-24T01:43:18.768Z,1007.57
2023-04-24T01:44:18.787Z,1007.56
2023-04-24T01:45:18.758Z,1007.6
2023-04-24T01:46:18.788Z,1007.56
2023-04-24T01:47:18.796Z,1007.57
2023-04-24T01:48:18.766Z,1007.5
2023-04-24T01:49:18.825Z,1007.57
2023-04-24T01:50:18.766Z,1007.52
2023-04-24T01:51:18.763Z,1007.53
2023-04-24T01:52:18.782Z,1007.46
2023-04-24T01:53:18.764Z,1007.46
2023-04-24T01:54:18.761Z,1007.45
2023-04-24T01:55:18.763Z,1007.46
2023-04-24T01:56:18.761Z,1007.44
2023-04-24T01:57:18.774Z,1007.39
2023-04-24T01:58:18.761Z,1007.45
2023-04-24T01:59:18.782Z,1007.45
2023-04-24T02:00:18.770Z,1007.42
2023-04-24T02:01:18.809Z,1007.39
2023-04-24T02:02:18.864Z,1007.36
2023-04-24T02:03:19.039Z,1007.37
2023-04-24T02:04:18.885Z,1007.37
2023-04-24T02:05:18.761Z,1007.35
2023-04-24T02:06:18.766Z,1007.3
2023-04-24T02:07:18.778Z,1007.3
2023-04-24T02:08:18.766Z,1007.26
2023-04-24T02:09:18.763Z,1007.25
2023-04-24T02:10:18.774Z,1007.21
2023-04-24T02:11:18.774Z,1007.24
2023-04-24T02:12:18.777Z,1007.19
2023-04-24T02:13:18.770Z,1007.18
2023-04-24T02:14:18.777Z,1007.19
2023-04-24T02:15:18.761Z,1007.16
2023-04-24T02:16:18.838Z,1007.21
2023-04-24T02:17:18.779Z,1007.17
2023-04-24T02:18:18.766Z,1007.17
2023-04-24T02:19:18.785Z,1007.17
2023-04-24T02:20:18.753Z,1007.13
2023-04-24T02:21:18.755Z,1007.23
2023-04-24T02:22:18.778Z,1007.23
2023-04-24T02:23:18.813Z,1007.23
2023-04-24T02:24:18.763Z,1007.2
2023-04-24T02:25:18.762Z,1007.22
2023-04-24T02:26:18.779Z,1007.2
2023-04-24T02:27:18.794Z,1007.14
2023-04-24T02:28:18.768Z,1007.24
2023-04-24T02:29:18.789Z,1007.32
2023-04-24T02:30:18.769Z,1007.2
2023-04-24T02:31:18.771Z,1007.24
2023-04-24T02:32:18.830Z,1007.23
2023-04-24T02:33:18.756Z,1007.23
2023-04-24T02:34:18.763Z,1007.26
2023-04-24T02:35:18.841Z,1007.27
2023-04-24T02:36:18.774Z,1007.25
2023-04-24T02:37:18.785Z,1007.26
2023-04-24T02:38:18.765Z,1007.3
2023-04-24T02:39:18.781Z,1007.27
2023-04-24T02:40:18.766Z,1007.34
2023-04-24T02:41:18.777Z,1007.26
2023-04-24T02:42:18.775Z,1007.23
2023-04-24T02:43:18.747Z,1007.26
2023-04-24T02:44:18.775Z,1007.27
2023-04-24T02:45:18.762Z,1007.36
2023-04-24T02:46:18.845Z,1007.26
2023-04-24T02:47:18.778Z,1007.27
2023-04-24T02:48:18.769Z,1007.29
2023-04-24T02:49:18.764Z,1007.29
2023-04-24T02:50:18.778Z,1007.33
2023-04-24T02:51:18.779Z,1007.3
2023-04-24T02:52:18.774Z,1007.29
2023-04-24T02:53:18.770Z,1007.25
2023-04-24T02:54:18.753Z,1007.21
2023-04-24T02:55:18.763Z,1007.25
2023-04-24T02:56:18.777Z,1007.3
2023-04-24T02:57:18.782Z,1007.33
2023-04-24T02:58:18.763Z,1007.3
2023-04-24T02:59:18.785Z,1007.29
2023-04-24T03:00:18.750Z,1007.29
2023-04-24T03:01:18.796Z,1007.26
2023-04-24T03:02:18.893Z,1007.27
2023-04-24T03:03:18.880Z,1007.38
2023-04-24T03:04:18.900Z,1007.33
2023-04-24T03:05:18.768Z,1007.34
2023-04-24T03:06:18.758Z,1007.3
2023-04-24T03:07:18.775Z,1007.3
2023-04-24T03:08:18.761Z,1007.33
2023-04-24T03:09:18.761Z,1007.35
2023-04-24T03:10:18.757Z,1007.35
2023-04-24T03:11:18.769Z,1007.33
2023-04-24T03:12:18.800Z,1007.37
2023-04-24T03:13:18.763Z,1007.4
2023-04-24T03:14:18.779Z,1007.39
2023-04-24T03:15:18.753Z,1007.4
2023-04-24T03:16:18.798Z,1007.43
2023-04-24T03:17:18.787Z,1007.44
2023-04-24T03:18:18.810Z,1007.45
2023-04-24T03:19:18.762Z,1007.45
2023-04-24T03:20:18.774Z,1007.46
2023-04-24T03:21:18.746Z,1007.45
2023-04-24T03:22:18.778Z,1007.49
2023-04-24T03:23:18.769Z,1007.46
2023-04-24T03:24:18.763Z,1007.45
2023-04-24T03:25:18.771Z,1007.43
2023-04-24T03:26:18.767Z,1007.44
2023-04-24T03:27:18.778Z,1007.45
2023-04-24T03:28:18.763Z,1007.42
2023-04-24T03:29:18.791Z,1007.41
2023-04-24T03:30:18.752Z,1007.38
2023-04-24T03:31:18.819Z,1007.37
2023-04-24T03:32:18.840Z,1007.42
2023-04-24T03:33:18.787Z,1007.36
2023-04-24T03:34:18.777Z,1007.42
2023-04-24T03:35:18.790Z,1007.44
2023-04-24T03:36:18.766Z,1007.4
2023-04-24T03:37:18.782Z,1007.38
2023-04-24T03:38:18.783Z,1007.43
2023-04-24T03:39:18.767Z,1007.38
2023-04-24T03:40:18.764Z,1007.37
2023-04-24T03:41:18.752Z,1007.32
2023-04-24T03:42:18.782Z,1007.33
2023-04-24T03:43:18.757Z,1007.38
2023-04-24T03:44:18.772Z,1007.36
2023-04-24T03:45:18.777Z,1007.37
2023-04-24T03:46:18.783Z,1007.35
2023-04-24T03:47:18.783Z,1007.36
2023-04-24T03:48:18.760Z,1007.39
2023-04-24T03:49:18.772Z,1007.46
2023-04-24T03:50:18.757Z,1007.38
2023-04-24T03:51:18.758Z,1007.41
2023-04-24T03:52:18.778Z,1007.42
2023-04-24T03:53:18.781Z,1007.37
2023-04-24T03:54:18.760Z,1007.39
2023-04-24T03:55:18.761Z,1007.38
2023-04-24T03:56:18.776Z,1007.37
2023-04-24T03:57:18.771Z,1007.37
2023-04-24T03:58:18.758Z,1007.35
2023-04-24T03:59:18.782Z,1007.38
2023-04-24T04:00:18.757Z,1007.36
2023-04-24T04:01:18.765Z,1007.33
2023-04-24T04:02:18.988Z,1007.35
2023-04-24T04:03:18.945Z,1007.34
2023-04-24T04:04:18.980Z,1007.34
2023-04-24T04:05:18.864Z,1007.32
2023-04-24T04:06:18.764Z,1007.36
2023-04-24T04:07:18.782Z,1007.36
2023-04-24T04:08:18.759Z,1007.31
2023-04-24T04:09:18.763Z,1007.32
2023-04-24T04:10:18.748Z,1007.3
2023-04-24T04:11:18.754Z,1007.33
2023-04-24T04:12:18.778Z,1007.35
2023-04-24T04:13:18.761Z,1007.33
2023-04-24T04:14:18.789Z,1007.35
2023-04-24T04:15:18.758Z,1007.38
2023-04-24T04:16:18.788Z,1007.36
2023-04-24T04:17:18.778Z,1007.36
2023-04-24T04:18:18.819Z,1007.4
2023-04-24T04:19:18.765Z,1007.37
2023-04-24T04:20:18.744Z,1007.38
2023-04-24T04:21:18.786Z,1007.33
2023-04-24T04:22:18.782Z,1007.35
2023-04-24T04:23:18.769Z,1007.34
2023-04-24T04:24:18.759Z,1007.37
2023-04-24T04:25:18.758Z,1007.39
2023-04-24T04:26:18.754Z,1007.38
2023-04-24T04:27:18.785Z,1007.4
2023-04-24T04:28:18.770Z,1007.36
2023-04-24T04:29:18.883Z,1007.37
2023-04-24T04:30:18.750Z,1007.38
2023-04-24T04:31:18.773Z,1007.35
2023-04-24T04:32:18.766Z,1007.36
2023-04-24T04:33:18.754Z,1007.34
2023-04-24T04:34:18.759Z,1007.36
2023-04-24T04:35:18.769Z,1007.37
2023-04-24T04:36:18.759Z,1007.39
2023-04-24T04:37:18.774Z,1007.4
2023-04-24T04:38:18.761Z,1007.38
2023-04-24T04:39:18.758Z,1007.36
2023-04-24T04:40:18.751Z,1007.35
2023-04-24T04:41:18.756Z,1007.4
2023-04-24T04:42:18.769Z,1007.42
2023-04-24T04:43:18.757Z,1007.45
2023-04-24T04:44:18.775Z,1007.47
2023-04-24T04:45:18.757Z,1007.48
2023-04-24T04:46:18.951Z,1007.48
2023-04-24T04:47:18.805Z,1007.56
2023-04-24T04:48:18.764Z,1007.6
2023-04-24T04:49:18.764Z,1007.56
2023-04-24T04:50:18.753Z,1007.58
2023-04-24T04:51:18.758Z,1007.61
2023-04-24T04:52:18.791Z,1007.61
2023-04-24T04:53:18.770Z,1007.62
2023-04-24T04:54:18.762Z,1007.6
2023-04-24T04:55:18.769Z,1007.58
2023-04-24T04:56:18.756Z,1007.63
2023-04-24T04:57:18.781Z,1007.58
2023-04-24T04:58:18.771Z,1007.6
2023-04-24T04:59:18.762Z,1007.58
2023-04-24T05:00:18.750Z,1007.59
2023-04-24T05:01:18.799Z,1007.6
2023-04-24T05:02:18.837Z,1007.6
2023-04-24T05:03:20.573Z,1007.61
2023-04-24T05:04:18.929Z,1007.64
2023-04-24T05:05:18.765Z,1007.63
2023-04-24T05:06:18.757Z,1007.68
2023-04-24T05:07:18.772Z,1007.68
2023-04-24T05:08:26.397Z,1007.72
2023-04-24T05:09:18.772Z,1007.73
2023-04-24T05:10:18.750Z,1007.72
2023-04-24T05:11:18.762Z,1007.75
2023-04-24T05:12:18.784Z,1007.79
2023-04-24T05:13:22.859Z,1007.81
2023-04-24T05:14:18.770Z,1007.78
2023-04-24T05:15:18.761Z,1007.85
2023-04-24T05:16:18.831Z,1007.85
2023-04-24T05:17:18.798Z,1007.88
2023-04-24T05:18:18.765Z,1007.86
2023-04-24T05:19:18.767Z,1007.89
2023-04-24T05:20:18.759Z,1007.87
2023-04-24T05:21:18.771Z,1007.86
2023-04-24T05:22:18.778Z,1007.91
2023-04-24T05:23:18.768Z,1007.88
2023-04-24T05:24:18.797Z,1007.91
2023-04-24T05:25:18.783Z,1007.92
2023-04-24T05:26:18.777Z,1007.94
2023-04-24T05:27:18.770Z,1007.94
2023-04-24T05:28:18.769Z,1007.95
2023-04-24T05:29:18.762Z,1007.94
2023-04-24T05:30:18.750Z,1007.94
2023-04-24T05:31:18.838Z,1007.96
2023-04-24T05:32:18.790Z,1007.94
2023-04-24T05:33:18.769Z,1007.92
2023-04-24T05:34:18.774Z,1007.99
2023-04-24T05:35:18.775Z,1007.94
2023-04-24T05:36:18.772Z,1008
2023-04-24T05:37:18.785Z,1008.01
2023-04-24T05:38:18.763Z,1007.99
2023-04-24T05:39:18.762Z,1008
2023-04-24T05:40:18.749Z,1008.03
2023-04-24T05:41:18.766Z,1008.04
2023-04-24T05:42:18.785Z,1008
2023-04-24T05:43:18.778Z,1008.03
2023-04-24T05:44:18.765Z,1008.01
2023-04-24T05:45:18.754Z,1008.08
2023-04-24T05:46:18.798Z,1008.05
2023-04-24T05:47:18.771Z,1008.06
2023-04-24T05:48:18.766Z,1008.08
2023-04-24T05:49:18.763Z,1008.1
2023-04-24T05:50:18.772Z,1008.11
2023-04-24T05:51:18.765Z,1008.11
2023-04-24T05:52:18.786Z,1008.13
2023-04-24T05:53:18.772Z,1008.09
2023-04-24T05:54:18.765Z,1008.11
2023-04-24T05:55:18.764Z,1008.09
2023-04-24T05:56:18.776Z,1008.13
2023-04-24T05:57:18.772Z,1008.06
2023-04-24T05:58:18.766Z,1008.06
2023-04-24T05:59:18.754Z,1008.03
2023-04-24T06:00:18.756Z,1008.04
2023-04-24T06:01:18.768Z,1008.08
2023-04-24T06:02:18.885Z,1008.06
2023-04-24T06:03:18.978Z,1008.06
2023-04-24T06:04:19.578Z,1008.05
2023-04-24T06:05:18.798Z,1008.08
2023-04-24T06:06:18.768Z,1008.12
2023-04-24T06:07:18.778Z,1008.12
2023-04-24T06:08:18.761Z,1008.12
2023-04-24T06:09:18.772Z,1008.12
2023-04-24T06:10:18.765Z,1008.13
2023-04-24T06:11:18.766Z,1008.12
2023-04-24T06:12:18.771Z,1008.12
2023-04-24T06:13:18.766Z,1008.06
2023-04-24T06:14:18.784Z,1008.11
2023-04-24T06:15:18.783Z,1008.1
2023-04-24T06:16:18.771Z,1008.09
2023-04-24T06:17:18.853Z,1008.11
2023-04-24T06:18:18.761Z,1008.08
2023-04-24T06:19:18.785Z,1008.1
2023-04-24T06:20:18.760Z,1008.06
2023-04-24T06:21:18.760Z,1008.05
2023-04-24T06:22:18.769Z,1008.05
2023-04-24T06:23:18.754Z,1008.04
2023-04-24T06:24:18.762Z,1008.04
2023-04-24T06:25:18.765Z,1008.05
2023-04-24T06:26:18.761Z,1008.07
2023-04-24T06:27:18.771Z,1008.08
2023-04-24T06:28:18.768Z,1008.07
2023-04-24T06:29:18.765Z,1008.06
2023-04-24T06:30:18.759Z,1008.03
2023-04-24T06:31:18.767Z,1008
2023-04-24T06:32:18.898Z,1008.01
2023-04-24T06:33:21.764Z,1008.04
2023-04-24T06:34:18.769Z,1008.06
2023-04-24T06:35:18.777Z,1008.06
2023-04-24T06:36:18.776Z,1008.11
2023-04-24T06:37:18.775Z,1008.13
2023-04-24T06:38:18.764Z,1008.17
2023-04-24T06:39:18.756Z,1008.09
2023-04-24T06:40:18.788Z,1008.15
2023-04-24T06:41:18.773Z,1008.15
2023-04-24T06:42:18.774Z,1008.2
2023-04-24T06:43:18.769Z,1008.17
2023-04-24T06:44:18.760Z,1008.15
2023-04-24T06:45:18.752Z,1008.17
2023-04-24T06:46:18.781Z,1008.16
2023-04-24T06:47:18.780Z,1008.23
2023-04-24T06:48:18.769Z,1008.2
2023-04-24T06:49:18.768Z,1008.24
2023-04-24T06:50:18.780Z,1008.17
2023-04-24T06:51:18.759Z,1008.15
2023-04-24T06:52:18.790Z,1008.23
2023-04-24T06:53:18.770Z,1008.16
2023-04-24T06:54:19.010Z,1008.17
2023-04-24T06:55:18.751Z,1008.13
2023-04-24T06:56:18.770Z,1008.1
2023-04-24T06:57:18.777Z,1008.09
2023-04-24T06:58:18.770Z,1008.12
2023-04-24T06:59:18.766Z,1008.14
2023-04-24T07:00:18.747Z,1008.14
2023-04-24T07:01:18.814Z,1008.08
2023-04-24T07:02:18.822Z,1008.12
2023-04-24T07:03:18.886Z,1008.13
2023-04-24T07:04:18.875Z,1008.17
2023-04-24T07:05:18.769Z,1008.19
2023-04-24T07:06:18.766Z,1008.18
2023-04-24T07:07:18.772Z,1008.18
2023-04-24T07:08:18.758Z,1008.23
2023-04-24T07:09:18.791Z,1008.26
2023-04-24T07:10:18.777Z,1008.23
2023-04-24T07:11:18.758Z,1008.23
2023-04-24T07:12:18.774Z,1008.25
2023-04-24T07:13:18.777Z,1008.32
2023-04-24T07:14:18.767Z,1008.36
2023-04-24T07:15:18.758Z,1008.36
2023-04-24T07:16:18.793Z,1008.35
2023-04-24T07:17:18.788Z,1008.39
2023-04-24T07:18:18.765Z,1008.38
2023-04-24T07:19:18.758Z,1008.36
2023-04-24T07:20:18.777Z,1008.38
2023-04-24T07:21:18.759Z,1008.38
2023-04-24T07:22:18.794Z,1008.43
2023-04-24T07:23:18.778Z,1008.41
2023-04-24T07:24:20.374Z,1008.36
2023-04-24T07:25:18.756Z,1008.4
2023-04-24T07:26:18.766Z,1008.36
2023-04-24T07:27:18.792Z,1008.35
2023-04-24T07:28:18.779Z,1008.4
2023-04-24T07:29:18.757Z,1008.41
2023-04-24T07:30:18.776Z,1008.38
2023-04-24T07:31:18.843Z,1008.37
2023-04-24T07:32:18.768Z,1008.36
2023-04-24T07:33:18.796Z,1008.4
2023-04-24T07:34:18.769Z,1008.46
2023-04-24T07:35:18.786Z,1008.38
2023-04-24T07:36:18.773Z,1008.38
2023-04-24T07:37:18.787Z,1008.38
2023-04-24T07:38:18.756Z,1008.31
2023-04-24T07:39:18.781Z,1008.33
2023-04-24T07:40:18.751Z,1008.37
2023-04-24T07:41:18.780Z,1008.43
2023-04-24T07:42:18.780Z,1008.46
2023-04-24T07:43:18.761Z,1008.39
2023-04-24T07:44:18.764Z,1008.43
2023-04-24T07:45:18.778Z,1008.43
2023-04-24T07:46:18.830Z,1008.43
2023-04-24T07:47:18.771Z,1008.41
2023-04-24T07:48:18.763Z,1008.41
2023-04-24T07:49:20.015Z,1008.43
2023-04-24T07:50:18.770Z,1008.45
2023-04-24T07:51:18.758Z,1008.47
2023-04-24T07:52:18.782Z,1008.46
2023-04-24T07:53:18.767Z,1008.48
2023-04-24T07:54:18.763Z,1008.5
2023-04-24T07:55:19.878Z,1008.46
2023-04-24T07:56:18.764Z,1008.56
2023-04-24T07:57:18.767Z,1008.52
2023-04-24T07:58:18.767Z,1008.49
2023-04-24T07:59:18.767Z,1008.5
2023-04-24T08:00:18.792Z,1008.52
2023-04-24T08:01:18.767Z,1008.5
2023-04-24T08:02:18.822Z,1008.48
2023-04-24T08:03:18.895Z,1008.51
2023-04-24T08:04:18.961Z,1008.48
2023-04-24T08:05:18.903Z,1008.53
2023-04-24T08:06:18.766Z,1008.51
2023-04-24T08:07:18.770Z,1008.51
2023-04-24T08:08:18.765Z,1008.48
2023-04-24T08:09:18.774Z,1008.53
2023-04-24T08:10:18.760Z,1008.55
2023-04-24T08:11:18.763Z,1008.63
2023-04-24T08:12:18.777Z,1008.5
2023-04-24T08:13:18.766Z,1008.59
2023-04-24T08:14:18.776Z,1008.58
2023-04-24T08:15:18.762Z,1008.51
2023-04-24T08:16:18.853Z,1008.56
2023-04-24T08:17:18.765Z,1008.5
2023-04-24T08:18:18.781Z,1008.52
2023-04-24T08:19:18.783Z,1008.56
2023-04-24T08:20:18.794Z,1008.65
2023-04-24T08:21:18.764Z,1008.51
2023-04-24T08:22:18.803Z,1008.54
2023-04-24T08:23:18.775Z,1008.59
2023-04-24T08:24:18.761Z,1008.54
2023-04-24T08:25:18.765Z,1008.55
2023-04-24T08:26:18.761Z,1008.55
2023-04-24T08:27:18.787Z,1008.62
2023-04-24T08:28:18.766Z,1008.53
2023-04-24T08:29:18.753Z,1008.58
2023-04-24T08:30:18.752Z,1008.6
2023-04-24T08:31:18.786Z,1008.59
2023-04-24T08:32:18.811Z,1008.61
2023-04-24T08:33:18.762Z,1008.61
2023-04-24T08:34:18.771Z,1008.58
2023-04-24T08:35:18.788Z,1008.61
2023-04-24T08:36:18.757Z,1008.66
2023-04-24T08:37:18.783Z,1008.59
2023-04-24T08:38:18.764Z,1008.59
2023-04-24T08:39:18.762Z,1008.6
2023-04-24T08:40:18.765Z,1008.59
2023-04-24T08:41:18.772Z,1008.6
2023-04-24T08:42:18.789Z,1008.58
2023-04-24T08:43:18.765Z,1008.52
2023-04-24T08:44:18.766Z,1008.58
2023-04-24T08:45:18.752Z,1008.55
2023-04-24T08:46:18.796Z,1008.59
2023-04-24T08:47:18.855Z,1008.75
2023-04-24T08:48:27.732Z,1008.66
2023-04-24T08:49:18.813Z,1008.59
2023-04-24T08:50:18.806Z,1008.56
2023-04-24T08:51:18.793Z,1008.63
2023-04-24T08:52:18.784Z,1008.65
2023-04-24T08:53:18.783Z,1008.73
2023-04-24T08:54:18.769Z,1008.61
2023-04-24T08:55:18.768Z,1008.63
2023-04-24T08:56:18.760Z,1008.61
2023-04-24T08:57:18.799Z,1008.69
2023-04-24T08:58:18.766Z,1008.59
2023-04-24T08:59:18.771Z,1008.58
2023-04-24T09:00:18.886Z,1008.62
2023-04-24T09:01:18.847Z,1008.69
2023-04-24T09:02:18.862Z,1008.69
2023-04-24T09:03:18.850Z,1008.59
2023-04-24T09:04:19.125Z,1008.63
2023-04-24T09:05:18.793Z,1008.68
2023-04-24T09:06:18.780Z,1008.59
2023-04-24T09:07:18.771Z,1008.59
2023-04-24T09:08:18.768Z,1008.59
2023-04-24T09:09:18.768Z,1008.57
2023-04-24T09:10:18.882Z,1008.59
2023-04-24T09:11:18.762Z,1008.68
2023-04-24T09:12:18.776Z,1008.72
2023-04-24T09:13:18.772Z,1008.63
2023-04-24T09:14:18.766Z,1008.6
2023-04-24T09:15:18.769Z,1008.57
2023-04-24T09:16:18.806Z,1008.56
2023-04-24T09:17:18.774Z,1008.66
2023-04-24T09:18:18.779Z,1008.58
2023-04-24T09:19:18.761Z,1008.75
2023-04-24T09:20:18.834Z,1008.66
2023-04-24T09:21:18.764Z,1008.6
2023-04-24T09:22:18.772Z,1008.61
2023-04-24T09:23:18.769Z,1008.63
2023-04-24T09:24:18.805Z,1008.64
2023-04-24T09:25:18.784Z,1008.65
2023-04-24T09:26:18.763Z,1008.62
2023-04-24T09:27:18.784Z,1008.6
2023-04-24T09:28:18.767Z,1008.56
2023-04-24T09:29:18.780Z,1008.59
2023-04-24T09:30:18.836Z,1008.59
2023-04-24T09:31:18.811Z,1008.66
2023-04-24T09:32:18.784Z,1008.61
2023-04-24T09:33:18.767Z,1008.61
2023-04-24T09:34:18.763Z,1008.63
2023-04-24T09:35:18.773Z,1008.57
2023-04-24T09:36:18.765Z,1008.58
2023-04-24T09:37:18.769Z,1008.65
2023-04-24T09:38:18.782Z,1008.6
2023-04-24T09:39:18.766Z,1008.54
2023-04-24T09:40:18.752Z,1008.6
2023-04-24T09:41:18.765Z,1008.5
2023-04-24T09:42:18.787Z,1008.53
2023-04-24T09:43:18.756Z,1008.69
2023-04-24T09:44:18.766Z,1008.56
2023-04-24T09:45:18.771Z,1008.63
2023-04-24T09:46:18.769Z,1008.5
2023-04-24T09:47:18.770Z,1008.55
2023-04-24T09:48:18.760Z,1008.55
2023-04-24T09:49:18.759Z,1008.45
2023-04-24T09:50:20.718Z,1008.58
2023-04-24T09:51:18.757Z,1008.56
2023-04-24T09:52:18.771Z,1008.54
2023-04-24T09:53:18.759Z,1008.49
2023-04-24T09:54:18.772Z,1008.55
2023-04-24T09:55:18.759Z,1008.41
2023-04-24T09:56:18.771Z,1008.56
2023-04-24T09:57:18.780Z,1008.37
2023-04-24T09:58:18.764Z,1008.31
2023-04-24T09:59:18.768Z,1008.45
2023-04-24T10:00:18.748Z,1008.33
2023-04-24T10:01:18.822Z,1008.45
2023-04-24T10:02:18.892Z,1008.31
2023-04-24T10:03:18.846Z,1008.34
2023-04-24T10:04:18.792Z,1008.39
2023-04-24T10:05:18.839Z,1008.47
2023-04-24T10:06:18.775Z,1008.45
2023-04-24T10:07:18.771Z,1008.45
2023-04-24T10:08:18.765Z,1008.45
2023-04-24T10:09:18.758Z,1008.38
2023-04-24T10:10:18.755Z,1008.36
2023-04-24T10:11:18.763Z,1008.47
2023-04-24T10:12:18.775Z,1008.43
2023-04-24T10:13:18.819Z,1008.33
2023-04-24T10:14:18.755Z,1008.34
2023-04-24T10:15:18.764Z,1008.38
2023-04-24T10:16:18.836Z,1008.33
2023-04-24T10:17:18.785Z,1008.32
2023-04-24T10:18:18.778Z,1008.3
2023-04-24T10:19:18.763Z,1008.33
2023-04-24T10:20:18.795Z,1008.35
2023-04-24T10:21:18.770Z,1008.38
2023-04-24T10:22:18.799Z,1008.34
2023-04-24T10:23:18.771Z,1008.39
2023-04-24T10:24:18.844Z,1008.36
2023-04-24T10:25:18.761Z,1008.28
2023-04-24T10:26:18.770Z,1008.36
2023-04-24T10:27:18.777Z,1008.32
2023-04-24T10:28:18.775Z,1008.33
2023-04-24T10:29:18.763Z,1008.35
2023-04-24T10:30:18.756Z,1008.42
2023-04-24T10:31:18.797Z,1008.37
2023-04-24T10:32:18.773Z,1008.47
2023-04-24T10:33:18.814Z,1008.54
2023-04-24T10:34:18.805Z,1008.5
2023-04-24T10:35:18.792Z,1008.57
2023-04-24T10:36:18.777Z,1008.68
2023-04-24T10:37:18.787Z,1008.39
2023-04-24T10:38:18.748Z,1008.45
2023-04-24T10:39:18.778Z,1008.5
2023-04-24T10:40:18.774Z,1008.43
2023-04-24T10:41:18.765Z,1008.46
2023-04-24T10:42:18.788Z,1008.46
2023-04-24T10:43:18.770Z,1008.4
2023-04-24T10:44:18.775Z,1008.45
2023-04-24T10:45:18.761Z,1008.49
2023-04-24T10:46:18.786Z,1008.52
2023-04-24T10:47:18.776Z,1008.55
2023-04-24T10:48:18.813Z,1008.54
2023-04-24T10:49:18.762Z,1008.56
2023-04-24T10:50:18.776Z,1008.64
2023-04-24T10:51:18.774Z,1008.7
2023-04-24T10:52:18.786Z,1008.58
2023-04-24T10:53:18.762Z,1008.7
2023-04-24T10:54:18.769Z,1008.69
2023-04-24T10:55:18.769Z,1008.66
2023-04-24T10:56:18.772Z,1008.71
2023-04-24T10:57:18.775Z,1008.79
2023-04-24T10:58:18.800Z,1008.74
2023-04-24T10:59:18.758Z,1008.73
2023-04-24T11:00:18.777Z,1008.74
2023-04-24T11:01:18.814Z,1008.77
2023-04-24T11:02:18.899Z,1008.76
2023-04-24T11:03:18.917Z,1008.76
2023-04-24T11:04:18.837Z,1008.73
2023-04-24T11:05:18.828Z,1008.76
2023-04-24T11:06:18.777Z,1008.73
2023-04-24T11:07:18.770Z,1008.8
2023-04-24T11:08:18.761Z,1008.8
2023-04-24T11:09:18.761Z,1008.71
2023-04-24T11:10:18.751Z,1008.72
2023-04-24T11:11:18.757Z,1008.74
2023-04-24T11:12:18.763Z,1008.68
2023-04-24T11:13:18.762Z,1008.65
2023-04-24T11:14:18.756Z,1008.68
2023-04-24T11:15:18.753Z,1008.62
2023-04-24T11:16:18.858Z,1008.64
2023-04-24T11:17:18.766Z,1008.6
2023-04-24T11:18:18.749Z,1008.66
2023-04-24T11:19:18.771Z,1008.7
2023-04-24T11:20:27.463Z,1008.68
2023-04-24T11:21:18.762Z,1008.64
2023-04-24T11:22:18.767Z,1008.65
2023-04-24T11:23:18.753Z,1008.68
2023-04-24T11:24:18.758Z,1008.69
2023-04-24T11:25:18.769Z,1008.65
2023-04-24T11:26:18.754Z,1008.61
2023-04-24T11:27:18.760Z,1008.62
2023-04-24T11:28:18.752Z,1008.62
2023-04-24T11:29:20.351Z,1008.62
2023-04-24T11:30:18.766Z,1008.62
2023-04-24T11:31:18.813Z,1008.6
2023-04-24T11:32:18.812Z,1008.58
2023-04-24T11:33:18.772Z,1008.59
2023-04-24T11:34:18.760Z,1008.58
2023-04-24T11:35:18.780Z,1008.57
2023-04-24T11:36:18.763Z,1008.55
2023-04-24T11:37:18.773Z,1008.57
2023-04-24T11:38:24.477Z,1008.58
2023-04-24T11:39:18.763Z,1008.61
2023-04-24T11:40:18.769Z,1008.55
2023-04-24T11:41:18.762Z,1008.56
2023-04-24T11:42:18.774Z,1008.53
2023-04-24T11:43:18.763Z,1008.51
2023-04-24T11:44:18.786Z,1008.51
2023-04-24T11:45:18.764Z,1008.53
2023-04-24T11:46:18.823Z,1008.53
2023-04-24T11:47:18.783Z,1008.61
2023-04-24T11:48:18.760Z,1008.61
2023-04-24T11:49:18.758Z,1008.74
2023-04-24T11:50:18.777Z,1008.72
2023-04-24T11:51:18.760Z,1008.66
2023-04-24T11:52:18.762Z,1008.7
2023-04-24T11:53:18.770Z,1008.68
2023-04-24T11:54:18.764Z,1008.7
2023-04-24T11:55:18.785Z,1008.7
2023-04-24T11:56:18.761Z,1008.77
2023-04-24T11:57:20.055Z,1008.72
2023-04-24T11:58:18.761Z,1008.74
2023-04-24T11:59:18.775Z,1008.69
2023-04-24T12:00:18.814Z,1008.81
2023-04-24T12:01:18.783Z,1008.78
2023-04-24T12:02:18.823Z,1008.69
2023-04-24T12:03:18.849Z,1008.7
2023-04-24T12:04:19.151Z,1008.66
2023-04-24T12:05:19.201Z,1008.65
2023-04-24T12:06:18.858Z,1008.56
2023-04-24T12:07:18.781Z,1008.62
2023-04-24T12:08:18.768Z,1008.59